sensor_id;sensor_type;location;lat;lon;timestamp;P1;durP1;ratioP1;P2;durP2;ratioP2
44536;SDS011;30245;51.966;6.292;2023-05-19T00:02:09;5.23;;;2.30;;
44536;SDS011;30245;51.966;6.292;2023-05-19T00:04:35;5.73;;;1.37;;
44536;SDS011;30245;51.966;6.292;2023-05-19T00:07:01;3.10;;;2.10;;
44536;SDS011;30245;51.966;6.292;2023-05-19T00:09:28;6.10;;;2.63;;
44536;SDS011;30245;51.966;6.292;2023-05-19T00:11:53;3.93;;;1.80;;
44536;SDS011;30245;51.966;6.292;2023-05-19T00:14:20;3.10;;;1.83;;
44536;SDS011;30245;51.966;6.292;2023-05-19T00:16:46;8.33;;;2.83;;
44536;SDS011;30245;51.966;6.292;2023-05-19T00:19:12;5.83;;;2.03;;
44536;SDS011;30245;51.966;6.292;2023-05-19T00:21:38;4.80;;;2.33;;
44536;SDS011;30245;51.966;6.292;2023-05-19T00:24:04;4.90;;;1.40;;
44536;SDS011;30245;51.966;6.292;2023-05-19T00:26:30;3.80;;;1.80;;
44536;SDS011;30245;51.966;6.292;2023-05-19T00:28:56;3.50;;;1.70;;
44536;SDS011;30245;51.966;6.292;2023-05-19T00:31:21;2.17;;;1.73;;
44536;SDS011;30245;51.966;6.292;2023-05-19T00:33:47;2.77;;;1.50;;
44536;SDS011;30245;51.966;6.292;2023-05-19T00:36:13;4.90;;;1.57;;
44536;SDS011;30245;51.966;6.292;2023-05-19T00:38:38;3.70;;;1.93;;
44536;SDS011;30245;51.966;6.292;2023-05-19T00:41:04;2.50;;;1.33;;
44536;SDS011;30245;51.966;6.292;2023-05-19T00:43:30;4.87;;;1.77;;
44536;SDS011;30245;51.966;6.292;2023-05-19T00:45:58;3.33;;;1.23;;
44536;SDS011;30245;51.966;6.292;2023-05-19T00:48:26;4.07;;;1.47;;
44536;SDS011;30245;51.966;6.292;2023-05-19T00:50:53;2.23;;;1.40;;
44536;SDS011;30245;51.966;6.292;2023-05-19T00:53:26;6.80;;;2.00;;
44536;SDS011;30245;51.966;6.292;2023-05-19T00:55:51;3.70;;;1.80;;
44536;SDS011;30245;51.966;6.292;2023-05-19T00:58:17;4.07;;;1.30;;
44536;SDS011;30245;51.966;6.292;2023-05-19T01:00:43;3.10;;;1.30;;
44536;SDS011;30245;51.966;6.292;2023-05-19T01:03:09;1.90;;;1.67;;
44536;SDS011;30245;51.966;6.292;2023-05-19T01:05:38;4.10;;;2.03;;
44536;SDS011;30245;51.966;6.292;2023-05-19T01:08:05;2.97;;;1.43;;
44536;SDS011;30245;51.966;6.292;2023-05-19T01:10:31;2.83;;;1.67;;
44536;SDS011;30245;51.966;6.292;2023-05-19T01:12:58;2.80;;;1.63;;
44536;SDS011;30245;51.966;6.292;2023-05-19T01:15:23;4.87;;;2.60;;
44536;SDS011;30245;51.966;6.292;2023-05-19T01:18:00;4.60;;;1.77;;
44536;SDS011;30245;51.966;6.292;2023-05-19T01:20:38;4.40;;;1.17;;
44536;SDS011;30245;51.966;6.292;2023-05-19T01:31:52;3.10;;;1.77;;
44536;SDS011;30245;51.966;6.292;2023-05-19T01:34:22;7.27;;;1.57;;
44536;SDS011;30245;51.966;6.292;2023-05-19T01:36:51;2.08;;;1.00;;
44536;SDS011;30245;51.966;6.292;2023-05-19T01:39:19;3.05;;;1.63;;
44536;SDS011;30245;51.966;6.292;2023-05-19T01:41:45;4.20;;;1.30;;
44536;SDS011;30245;51.966;6.292;2023-05-19T01:44:12;4.23;;;1.43;;
44536;SDS011;30245;51.966;6.292;2023-05-19T01:46:38;5.70;;;2.07;;
44536;SDS011;30245;51.966;6.292;2023-05-19T01:49:04;8.60;;;1.73;;
44536;SDS011;30245;51.966;6.292;2023-05-19T01:51:31;4.07;;;1.20;;
44536;SDS011;30245;51.966;6.292;2023-05-19T01:53:57;2.93;;;1.20;;
44536;SDS011;30245;51.966;6.292;2023-05-19T01:56:27;2.30;;;1.07;;
44536;SDS011;30245;51.966;6.292;2023-05-19T01:59:18;2.53;;;1.33;;
44536;SDS011;30245;51.966;6.292;2023-05-19T02:01:56;5.47;;;2.40;;
44536;SDS011;30245;51.966;6.292;2023-05-19T02:04:40;3.40;;;1.30;;
44536;SDS011;30245;51.966;6.292;2023-05-19T02:07:11;3.83;;;1.50;;
44536;SDS011;30245;51.966;6.292;2023-05-19T02:15:13;4.07;;;2.03;;
44536;SDS011;30245;51.966;6.292;2023-05-19T02:17:41;3.10;;;1.65;;
44536;SDS011;30245;51.966;6.292;2023-05-19T02:20:12;1.70;;;1.10;;
44536;SDS011;30245;51.966;6.292;2023-05-19T02:22:39;8.57;;;1.73;;
44536;SDS011;30245;51.966;6.292;2023-05-19T02:25:05;2.30;;;0.93;;
44536;SDS011;30245;51.966;6.292;2023-05-19T02:27:31;2.83;;;1.20;;
44536;SDS011;30245;51.966;6.292;2023-05-19T02:29:57;1.43;;;0.80;;
44536;SDS011;30245;51.966;6.292;2023-05-19T02:32:23;1.87;;;1.20;;
44536;SDS011;30245;51.966;6.292;2023-05-19T02:34:48;2.93;;;0.93;;
44536;SDS011;30245;51.966;6.292;2023-05-19T02:37:14;2.97;;;1.30;;
44536;SDS011;30245;51.966;6.292;2023-05-19T02:39:43;1.93;;;1.30;;
44536;SDS011;30245;51.966;6.292;2023-05-19T02:42:09;4.27;;;1.30;;
44536;SDS011;30245;51.966;6.292;2023-05-19T02:44:36;5.47;;;2.60;;
44536;SDS011;30245;51.966;6.292;2023-05-19T02:47:02;3.00;;;1.03;;
44536;SDS011;30245;51.966;6.292;2023-05-19T02:49:27;6.57;;;1.57;;
44536;SDS011;30245;51.966;6.292;2023-05-19T02:51:59;2.97;;;0.90;;
44536;SDS011;30245;51.966;6.292;2023-05-19T02:54:26;2.77;;;1.13;;
44536;SDS011;30245;51.966;6.292;2023-05-19T02:56:51;4.07;;;1.30;;
44536;SDS011;30245;51.966;6.292;2023-05-19T02:59:17;2.90;;;0.90;;
44536;SDS011;30245;51.966;6.292;2023-05-19T03:01:42;2.93;;;1.57;;
44536;SDS011;30245;51.966;6.292;2023-05-19T03:04:08;2.57;;;1.13;;
44536;SDS011;30245;51.966;6.292;2023-05-19T03:06:33;2.83;;;1.53;;
44536;SDS011;30245;51.966;6.292;2023-05-19T03:09:00;6.70;;;1.37;;
44536;SDS011;30245;51.966;6.292;2023-05-19T03:11:25;4.33;;;1.93;;
44536;SDS011;30245;51.966;6.292;2023-05-19T03:13:51;2.43;;;1.00;;
44536;SDS011;30245;51.966;6.292;2023-05-19T03:16:16;4.87;;;1.10;;
44536;SDS011;30245;51.966;6.292;2023-05-19T03:18:42;3.97;;;2.03;;
44536;SDS011;30245;51.966;6.292;2023-05-19T03:21:08;3.00;;;1.37;;
44536;SDS011;30245;51.966;6.292;2023-05-19T03:23:34;4.07;;;1.13;;
44536;SDS011;30245;51.966;6.292;2023-05-19T03:25:59;3.67;;;1.27;;
44536;SDS011;30245;51.966;6.292;2023-05-19T03:28:25;3.53;;;1.40;;
44536;SDS011;30245;51.966;6.292;2023-05-19T03:30:53;4.28;;;1.15;;
44536;SDS011;30245;51.966;6.292;2023-05-19T03:33:19;2.60;;;1.53;;
44536;SDS011;30245;51.966;6.292;2023-05-19T03:35:45;4.30;;;2.00;;
44536;SDS011;30245;51.966;6.292;2023-05-19T03:38:10;5.33;;;2.20;;
44536;SDS011;30245;51.966;6.292;2023-05-19T03:40:36;4.50;;;1.60;;
44536;SDS011;30245;51.966;6.292;2023-05-19T03:43:02;4.67;;;2.10;;
44536;SDS011;30245;51.966;6.292;2023-05-19T03:45:27;4.27;;;1.30;;
44536;SDS011;30245;51.966;6.292;2023-05-19T03:47:53;5.43;;;2.10;;
44536;SDS011;30245;51.966;6.292;2023-05-19T03:50:18;4.17;;;1.83;;
44536;SDS011;30245;51.966;6.292;2023-05-19T03:52:45;3.50;;;1.30;;
44536;SDS011;30245;51.966;6.292;2023-05-19T03:55:12;3.87;;;1.57;;
44536;SDS011;30245;51.966;6.292;2023-05-19T03:57:38;8.60;;;2.97;;
44536;SDS011;30245;51.966;6.292;2023-05-19T04:00:05;6.23;;;1.73;;
44536;SDS011;30245;51.966;6.292;2023-05-19T04:02:31;5.13;;;1.97;;
44536;SDS011;30245;51.966;6.292;2023-05-19T04:04:57;4.27;;;1.50;;
44536;SDS011;30245;51.966;6.292;2023-05-19T04:07:22;3.77;;;1.90;;
44536;SDS011;30245;51.966;6.292;2023-05-19T04:09:48;4.73;;;2.00;;
44536;SDS011;30245;51.966;6.292;2023-05-19T04:12:14;5.23;;;1.90;;
44536;SDS011;30245;51.966;6.292;2023-05-19T04:14:40;2.33;;;1.57;;
44536;SDS011;30245;51.966;6.292;2023-05-19T04:17:06;5.67;;;1.77;;
44536;SDS011;30245;51.966;6.292;2023-05-19T04:19:31;6.70;;;1.30;;
44536;SDS011;30245;51.966;6.292;2023-05-19T04:21:57;6.00;;;3.10;;
44536;SDS011;30245;51.966;6.292;2023-05-19T04:24:23;3.27;;;2.03;;
44536;SDS011;30245;51.966;6.292;2023-05-19T04:26:48;4.97;;;2.60;;
44536;SDS011;30245;51.966;6.292;2023-05-19T04:29:14;4.00;;;2.20;;
44536;SDS011;30245;51.966;6.292;2023-05-19T04:31:41;5.00;;;1.60;;
44536;SDS011;30245;51.966;6.292;2023-05-19T04:34:08;6.40;;;1.90;;
44536;SDS011;30245;51.966;6.292;2023-05-19T04:36:34;5.13;;;1.90;;
44536;SDS011;30245;51.966;6.292;2023-05-19T04:39:00;5.67;;;1.83;;
44536;SDS011;30245;51.966;6.292;2023-05-19T04:41:27;3.80;;;1.40;;
44536;SDS011;30245;51.966;6.292;2023-05-19T04:43:53;4.57;;;1.83;;
44536;SDS011;30245;51.966;6.292;2023-05-19T04:46:21;3.35;;;1.67;;
44536;SDS011;30245;51.966;6.292;2023-05-19T04:48:48;2.80;;;1.50;;
44536;SDS011;30245;51.966;6.292;2023-05-19T04:51:14;1.70;;;1.53;;
44536;SDS011;30245;51.966;6.292;2023-05-19T04:53:41;4.63;;;2.23;;
44536;SDS011;30245;51.966;6.292;2023-05-19T04:56:07;6.37;;;1.77;;
44536;SDS011;30245;51.966;6.292;2023-05-19T04:58:33;2.30;;;1.70;;
44536;SDS011;30245;51.966;6.292;2023-05-19T05:00:59;4.40;;;1.80;;
44536;SDS011;30245;51.966;6.292;2023-05-19T05:03:25;2.97;;;1.93;;
44536;SDS011;30245;51.966;6.292;2023-05-19T05:05:50;6.90;;;2.00;;
44536;SDS011;30245;51.966;6.292;2023-05-19T05:08:16;3.57;;;2.70;;
44536;SDS011;30245;51.966;6.292;2023-05-19T05:10:48;3.50;;;2.60;;
44536;SDS011;30245;51.966;6.292;2023-05-19T05:13:15;3.10;;;2.28;;
44536;SDS011;30245;51.966;6.292;2023-05-19T05:15:41;14.10;;;2.37;;
44536;SDS011;30245;51.966;6.292;2023-05-19T05:18:07;3.87;;;2.07;;
44536;SDS011;30245;51.966;6.292;2023-05-19T05:20:36;2.67;;;1.53;;
44536;SDS011;30245;51.966;6.292;2023-05-19T05:23:02;5.97;;;2.70;;
44536;SDS011;30245;51.966;6.292;2023-05-19T05:25:28;3.60;;;1.67;;
44536;SDS011;30245;51.966;6.292;2023-05-19T05:27:53;3.47;;;1.53;;
44536;SDS011;30245;51.966;6.292;2023-05-19T05:30:19;4.03;;;2.13;;
44536;SDS011;30245;51.966;6.292;2023-05-19T05:32:45;5.30;;;2.33;;
44536;SDS011;30245;51.966;6.292;2023-05-19T05:35:10;4.40;;;1.53;;
44536;SDS011;30245;51.966;6.292;2023-05-19T05:37:36;4.80;;;2.40;;
44536;SDS011;30245;51.966;6.292;2023-05-19T05:40:02;8.90;;;2.33;;
44536;SDS011;30245;51.966;6.292;2023-05-19T05:42:28;3.67;;;2.17;;
44536;SDS011;30245;51.966;6.292;2023-05-19T05:44:54;5.20;;;2.63;;
44536;SDS011;30245;51.966;6.292;2023-05-19T05:47:19;5.80;;;1.87;;
44536;SDS011;30245;51.966;6.292;2023-05-19T05:49:45;3.00;;;1.40;;
44536;SDS011;30245;51.966;6.292;2023-05-19T05:52:12;4.73;;;2.20;;
44536;SDS011;30245;51.966;6.292;2023-05-19T05:54:39;3.83;;;1.77;;
44536;SDS011;30245;51.966;6.292;2023-05-19T05:57:05;3.83;;;1.90;;
44536;SDS011;30245;51.966;6.292;2023-05-19T05:59:31;2.07;;;1.53;;
44536;SDS011;30245;51.966;6.292;2023-05-19T06:01:57;5.47;;;2.20;;
44536;SDS011;30245;51.966;6.292;2023-05-19T06:04:23;8.07;;;1.47;;
44536;SDS011;30245;51.966;6.292;2023-05-19T06:06:49;5.47;;;2.33;;
44536;SDS011;30245;51.966;6.292;2023-05-19T06:09:16;2.23;;;1.87;;
44536;SDS011;30245;51.966;6.292;2023-05-19T06:11:42;1.90;;;1.33;;
44536;SDS011;30245;51.966;6.292;2023-05-19T06:14:07;3.90;;;2.23;;
44536;SDS011;30245;51.966;6.292;2023-05-19T06:16:33;2.47;;;1.23;;
44536;SDS011;30245;51.966;6.292;2023-05-19T06:18:58;5.53;;;1.53;;
44536;SDS011;30245;51.966;6.292;2023-05-19T06:21:24;4.10;;;1.77;;
44536;SDS011;30245;51.966;6.292;2023-05-19T06:23:50;2.97;;;1.40;;
44536;SDS011;30245;51.966;6.292;2023-05-19T06:26:15;4.10;;;1.50;;
44536;SDS011;30245;51.966;6.292;2023-05-19T06:28:41;4.50;;;2.07;;
44536;SDS011;30245;51.966;6.292;2023-05-19T06:31:06;3.33;;;1.10;;
44536;SDS011;30245;51.966;6.292;2023-05-19T06:33:32;2.57;;;1.37;;
44536;SDS011;30245;51.966;6.292;2023-05-19T06:35:58;4.83;;;1.13;;
44536;SDS011;30245;51.966;6.292;2023-05-19T06:38:23;6.20;;;2.33;;
44536;SDS011;30245;51.966;6.292;2023-05-19T06:40:49;2.77;;;1.53;;
44536;SDS011;30245;51.966;6.292;2023-05-19T06:43:14;3.80;;;1.83;;
44536;SDS011;30245;51.966;6.292;2023-05-19T06:45:40;5.00;;;1.43;;
44536;SDS011;30245;51.966;6.292;2023-05-19T06:48:06;2.53;;;1.67;;
44536;SDS011;30245;51.966;6.292;2023-05-19T06:50:31;6.23;;;1.80;;
44536;SDS011;30245;51.966;6.292;2023-05-19T06:52:57;2.37;;;1.50;;
44536;SDS011;30245;51.966;6.292;2023-05-19T06:55:22;7.30;;;1.17;;
44536;SDS011;30245;51.966;6.292;2023-05-19T06:57:48;2.60;;;1.23;;
44536;SDS011;30245;51.966;6.292;2023-05-19T07:00:14;5.80;;;1.30;;
44536;SDS011;30245;51.966;6.292;2023-05-19T07:02:42;3.63;;;1.90;;
44536;SDS011;30245;51.966;6.292;2023-05-19T07:05:08;4.60;;;1.40;;
44536;SDS011;30245;51.966;6.292;2023-05-19T07:07:34;5.20;;;1.20;;
44536;SDS011;30245;51.966;6.292;2023-05-19T07:09:59;3.33;;;1.63;;
44536;SDS011;30245;51.966;6.292;2023-05-19T07:12:25;3.20;;;0.93;;
44536;SDS011;30245;51.966;6.292;2023-05-19T07:14:51;5.50;;;2.10;;
44536;SDS011;30245;51.966;6.292;2023-05-19T07:17:17;2.83;;;0.83;;
44536;SDS011;30245;51.966;6.292;2023-05-19T07:19:42;3.20;;;1.27;;
44536;SDS011;30245;51.966;6.292;2023-05-19T07:22:08;5.50;;;1.40;;
44536;SDS011;30245;51.966;6.292;2023-05-19T07:24:33;4.53;;;0.70;;
44536;SDS011;30245;51.966;6.292;2023-05-19T07:26:59;4.68;;;0.98;;
44536;SDS011;30245;51.966;6.292;2023-05-19T07:29:25;3.00;;;1.17;;
44536;SDS011;30245;51.966;6.292;2023-05-19T07:31:50;1.85;;;0.73;;
44536;SDS011;30245;51.966;6.292;2023-05-19T07:34:22;2.03;;;1.15;;
44536;SDS011;30245;51.966;6.292;2023-05-19T07:36:48;5.80;;;1.55;;
44536;SDS011;30245;51.966;6.292;2023-05-19T07:39:14;2.70;;;1.02;;
44536;SDS011;30245;51.966;6.292;2023-05-19T07:41:39;2.97;;;0.63;;
44536;SDS011;30245;51.966;6.292;2023-05-19T07:44:05;29.25;;;8.05;;
44536;SDS011;30245;51.966;6.292;2023-05-19T07:46:32;12.68;;;3.60;;
44536;SDS011;30245;51.966;6.292;2023-05-19T07:48:58;3.92;;;1.35;;
44536;SDS011;30245;51.966;6.292;2023-05-19T07:51:23;14.23;;;1.55;;
44536;SDS011;30245;51.966;6.292;2023-05-19T07:53:49;3.22;;;0.70;;
44536;SDS011;30245;51.966;6.292;2023-05-19T07:56:15;3.72;;;1.00;;
44536;SDS011;30245;51.966;6.292;2023-05-19T07:58:41;2.60;;;0.57;;
44536;SDS011;30245;51.966;6.292;2023-05-19T08:01:06;3.05;;;0.80;;
44536;SDS011;30245;51.966;6.292;2023-05-19T08:03:32;1.70;;;0.52;;
44536;SDS011;30245;51.966;6.292;2023-05-19T08:05:57;4.97;;;0.55;;
44536;SDS011;30245;51.966;6.292;2023-05-19T08:08:23;2.65;;;0.68;;
44536;SDS011;30245;51.966;6.292;2023-05-19T08:10:49;3.15;;;0.80;;
44536;SDS011;30245;51.966;6.292;2023-05-19T08:13:14;2.65;;;0.50;;
44536;SDS011;30245;51.966;6.292;2023-05-19T08:15:40;1.67;;;0.60;;
44536;SDS011;30245;51.966;6.292;2023-05-19T08:18:06;1.50;;;0.68;;
44536;SDS011;30245;51.966;6.292;2023-05-19T08:20:32;5.10;;;0.73;;
44536;SDS011;30245;51.966;6.292;2023-05-19T08:22:58;1.45;;;0.40;;
44536;SDS011;30245;51.966;6.292;2023-05-19T08:25:23;1.42;;;0.70;;
44536;SDS011;30245;51.966;6.292;2023-05-19T08:27:49;1.73;;;0.68;;
44536;SDS011;30245;51.966;6.292;2023-05-19T08:30:14;2.78;;;0.40;;
44536;SDS011;30245;51.966;6.292;2023-05-19T08:32:40;3.92;;;0.77;;
44536;SDS011;30245;51.966;6.292;2023-05-19T08:35:06;1.42;;;0.90;;
44536;SDS011;30245;51.966;6.292;2023-05-19T08:37:32;1.67;;;0.50;;
44536;SDS011;30245;51.966;6.292;2023-05-19T08:42:28;1.42;;;0.55;;
44536;SDS011;30245;51.966;6.292;2023-05-19T08:44:54;1.13;;;0.40;;
44536;SDS011;30245;51.966;6.292;2023-05-19T08:47:27;4.22;;;0.60;;
44536;SDS011;30245;51.966;6.292;2023-05-19T08:49:54;2.25;;;0.30;;
44536;SDS011;30245;51.966;6.292;2023-05-19T08:55:21;2.17;;;0.52;;
44536;SDS011;30245;51.966;6.292;2023-05-19T08:58:06;2.97;;;0.50;;
44536;SDS011;30245;51.966;6.292;2023-05-19T09:00:33;2.92;;;0.85;;
44536;SDS011;30245;51.966;6.292;2023-05-19T09:02:59;2.85;;;0.32;;
44536;SDS011;30245;51.966;6.292;2023-05-19T09:05:26;3.15;;;0.40;;
44536;SDS011;30245;51.966;6.292;2023-05-19T09:07:52;4.32;;;0.50;;
44536;SDS011;30245;51.966;6.292;2023-05-19T09:10:17;2.13;;;0.40;;
44536;SDS011;30245;51.966;6.292;2023-05-19T09:12:44;1.40;;;0.60;;
44536;SDS011;30245;51.966;6.292;2023-05-19T09:15:11;3.30;;;0.70;;
44536;SDS011;30245;51.966;6.292;2023-05-19T09:17:40;4.85;;;0.43;;
44536;SDS011;30245;51.966;6.292;2023-05-19T09:20:05;5.63;;;0.82;;
44536;SDS011;30245;51.966;6.292;2023-05-19T09:22:39;4.05;;;0.40;;
44536;SDS011;30245;51.966;6.292;2023-05-19T09:25:18;2.22;;;0.40;;
44536;SDS011;30245;51.966;6.292;2023-05-19T09:27:47;1.10;;;0.28;;
44536;SDS011;30245;51.966;6.292;2023-05-19T09:30:16;1.77;;;0.38;;
44536;SDS011;30245;51.966;6.292;2023-05-19T09:32:42;3.70;;;0.60;;
44536;SDS011;30245;51.966;6.292;2023-05-19T09:35:08;0.90;;;0.30;;
44536;SDS011;30245;51.966;6.292;2023-05-19T09:37:38;3.78;;;0.77;;
44536;SDS011;30245;51.966;6.292;2023-05-19T09:40:05;2.70;;;0.35;;
44536;SDS011;30245;51.966;6.292;2023-05-19T09:42:37;0.90;;;0.38;;
44536;SDS011;30245;51.966;6.292;2023-05-19T09:45:05;2.58;;;0.63;;
44536;SDS011;30245;51.966;6.292;2023-05-19T09:47:35;3.03;;;0.50;;
44536;SDS011;30245;51.966;6.292;2023-05-19T09:50:06;2.53;;;0.40;;
44536;SDS011;30245;51.966;6.292;2023-05-19T09:52:36;1.90;;;0.47;;
44536;SDS011;30245;51.966;6.292;2023-05-19T09:55:03;0.90;;;0.20;;
44536;SDS011;30245;51.966;6.292;2023-05-19T09:57:33;3.20;;;0.70;;
44536;SDS011;30245;51.966;6.292;2023-05-19T10:02:33;1.10;;;0.20;;
44536;SDS011;30245;51.966;6.292;2023-05-19T10:04:59;0.95;;;0.30;;
44536;SDS011;30245;51.966;6.292;2023-05-19T10:07:26;2.45;;;0.30;;
44536;SDS011;30245;51.966;6.292;2023-05-19T10:09:52;3.67;;;0.30;;
44536;SDS011;30245;51.966;6.292;2023-05-19T10:12:19;1.77;;;0.47;;
44536;SDS011;30245;51.966;6.292;2023-05-19T10:14:45;2.83;;;0.50;;
44536;SDS011;30245;51.966;6.292;2023-05-19T10:17:12;2.95;;;0.30;;
44536;SDS011;30245;51.966;6.292;2023-05-19T10:19:38;1.23;;;0.25;;
44536;SDS011;30245;51.966;6.292;2023-05-19T10:22:05;2.67;;;0.40;;
44536;SDS011;30245;51.966;6.292;2023-05-19T10:24:30;1.65;;;0.30;;
44536;SDS011;30245;51.966;6.292;2023-05-19T10:29:27;2.78;;;0.30;;
44536;SDS011;30245;51.966;6.292;2023-05-19T10:31:56;2.10;;;0.68;;
44536;SDS011;30245;51.966;6.292;2023-05-19T10:34:35;2.53;;;0.70;;
44536;SDS011;30245;51.966;6.292;2023-05-19T10:40:07;1.58;;;0.40;;
44536;SDS011;30245;51.966;6.292;2023-05-19T10:42:44;3.78;;;0.47;;
44536;SDS011;30245;51.966;6.292;2023-05-19T10:45:17;1.65;;;0.57;;
44536;SDS011;30245;51.966;6.292;2023-05-19T10:47:45;2.28;;;0.52;;
44536;SDS011;30245;51.966;6.292;2023-05-19T10:50:11;3.13;;;0.77;;
44536;SDS011;30245;51.966;6.292;2023-05-19T10:52:37;1.27;;;0.20;;
44536;SDS011;30245;51.966;6.292;2023-05-19T10:55:07;3.03;;;0.40;;
44536;SDS011;30245;51.966;6.292;2023-05-19T10:57:34;1.92;;;0.30;;
44536;SDS011;30245;51.966;6.292;2023-05-19T11:00:05;1.02;;;0.30;;
44536;SDS011;30245;51.966;6.292;2023-05-19T11:02:53;1.95;;;0.52;;
44536;SDS011;30245;51.966;6.292;2023-05-19T11:05:35;3.83;;;0.45;;
44536;SDS011;30245;51.966;6.292;2023-05-19T11:08:01;1.85;;;0.63;;
44536;SDS011;30245;51.966;6.292;2023-05-19T11:10:29;1.85;;;0.20;;
44536;SDS011;30245;51.966;6.292;2023-05-19T11:12:58;2.38;;;0.20;;
44536;SDS011;30245;51.966;6.292;2023-05-19T11:15:26;2.25;;;0.20;;
44536;SDS011;30245;51.966;6.292;2023-05-19T11:17:53;3.47;;;0.50;;
44536;SDS011;30245;51.966;6.292;2023-05-19T11:20:22;1.25;;;0.30;;
44536;SDS011;30245;51.966;6.292;2023-05-19T11:23:09;0.88;;;0.30;;
44536;SDS011;30245;51.966;6.292;2023-05-19T11:25:42;1.33;;;0.30;;
44536;SDS011;30245;51.966;6.292;2023-05-19T11:28:13;0.80;;;0.30;;
44536;SDS011;30245;51.966;6.292;2023-05-19T11:30:40;1.42;;;0.40;;
44536;SDS011;30245;51.966;6.292;2023-05-19T11:33:08;3.65;;;0.20;;
44536;SDS011;30245;51.966;6.292;2023-05-19T11:35:34;2.97;;;0.30;;
44536;SDS011;30245;51.966;6.292;2023-05-19T11:38:01;1.17;;;0.25;;
44536;SDS011;30245;51.966;6.292;2023-05-19T11:40:27;1.52;;;0.30;;
44536;SDS011;30245;51.966;6.292;2023-05-19T11:42:54;2.92;;;0.30;;
44536;SDS011;30245;51.966;6.292;2023-05-19T11:45:23;1.95;;;0.30;;
44536;SDS011;30245;51.966;6.292;2023-05-19T11:47:50;3.08;;;0.35;;
44536;SDS011;30245;51.966;6.292;2023-05-19T11:50:16;2.78;;;0.30;;
44536;SDS011;30245;51.966;6.292;2023-05-19T11:52:45;1.67;;;0.20;;
44536;SDS011;30245;51.966;6.292;2023-05-19T11:55:18;1.17;;;0.10;;
44536;SDS011;30245;51.966;6.292;2023-05-19T11:57:52;1.88;;;0.22;;
44536;SDS011;30245;51.966;6.292;2023-05-19T12:00:27;2.08;;;0.75;;
44536;SDS011;30245;51.966;6.292;2023-05-19T12:02:55;2.55;;;0.20;;
44536;SDS011;30245;51.966;6.292;2023-05-19T12:05:22;1.60;;;0.30;;
44536;SDS011;30245;51.966;6.292;2023-05-19T12:07:49;2.60;;;0.38;;
44536;SDS011;30245;51.966;6.292;2023-05-19T12:10:22;1.20;;;0.30;;
44536;SDS011;30245;51.966;6.292;2023-05-19T12:12:50;2.05;;;0.20;;
44536;SDS011;30245;51.966;6.292;2023-05-19T12:15:20;1.90;;;0.20;;
44536;SDS011;30245;51.966;6.292;2023-05-19T12:17:56;1.05;;;0.30;;
44536;SDS011;30245;51.966;6.292;2023-05-19T12:20:23;2.65;;;0.50;;
44536;SDS011;30245;51.966;6.292;2023-05-19T12:22:50;1.13;;;0.20;;
44536;SDS011;30245;51.966;6.292;2023-05-19T12:25:16;3.45;;;0.50;;
44536;SDS011;30245;51.966;6.292;2023-05-19T12:27:42;1.40;;;0.25;;
44536;SDS011;30245;51.966;6.292;2023-05-19T12:30:09;1.38;;;0.20;;
44536;SDS011;30245;51.966;6.292;2023-05-19T12:32:36;3.10;;;0.30;;
44536;SDS011;30245;51.966;6.292;2023-05-19T12:35:03;2.90;;;0.40;;
44536;SDS011;30245;51.966;6.292;2023-05-19T12:37:29;1.40;;;0.47;;
44536;SDS011;30245;51.966;6.292;2023-05-19T12:40:00;0.93;;;0.30;;
44536;SDS011;30245;51.966;6.292;2023-05-19T12:42:28;3.92;;;0.32;;
44536;SDS011;30245;51.966;6.292;2023-05-19T12:44:55;4.15;;;0.68;;
44536;SDS011;30245;51.966;6.292;2023-05-19T12:47:28;2.00;;;0.30;;
44536;SDS011;30245;51.966;6.292;2023-05-19T12:52:33;1.67;;;0.30;;
44536;SDS011;30245;51.966;6.292;2023-05-19T12:55:05;1.20;;;0.68;;
44536;SDS011;30245;51.966;6.292;2023-05-19T12:57:38;1.95;;;0.30;;
44536;SDS011;30245;51.966;6.292;2023-05-19T13:00:14;1.02;;;0.30;;
44536;SDS011;30245;51.966;6.292;2023-05-19T13:05:19;1.98;;;0.22;;
44536;SDS011;30245;51.966;6.292;2023-05-19T13:10:28;1.45;;;0.20;;
44536;SDS011;30245;51.966;6.292;2023-05-19T13:12:55;2.72;;;0.20;;
44536;SDS011;30245;51.966;6.292;2023-05-19T13:15:23;1.15;;;0.30;;
44536;SDS011;30245;51.966;6.292;2023-05-19T13:17:53;1.42;;;0.50;;
44536;SDS011;30245;51.966;6.292;2023-05-19T13:20:20;2.03;;;0.50;;
44536;SDS011;30245;51.966;6.292;2023-05-19T13:22:46;0.75;;;0.20;;
44536;SDS011;30245;51.966;6.292;2023-05-19T13:25:12;1.10;;;0.30;;
44536;SDS011;30245;51.966;6.292;2023-05-19T13:27:38;1.90;;;0.30;;
44536;SDS011;30245;51.966;6.292;2023-05-19T13:30:05;2.70;;;0.22;;
44536;SDS011;30245;51.966;6.292;2023-05-19T13:32:31;2.78;;;0.50;;
44536;SDS011;30245;51.966;6.292;2023-05-19T13:34:56;2.53;;;0.20;;
44536;SDS011;30245;51.966;6.292;2023-05-19T13:37:22;2.88;;;0.50;;
44536;SDS011;30245;51.966;6.292;2023-05-19T13:39:48;3.45;;;0.45;;
44536;SDS011;30245;51.966;6.292;2023-05-19T13:42:14;3.28;;;0.30;;
44536;SDS011;30245;51.966;6.292;2023-05-19T13:44:41;1.02;;;0.20;;
44536;SDS011;30245;51.966;6.292;2023-05-19T13:47:07;1.30;;;0.52;;
44536;SDS011;30245;51.966;6.292;2023-05-19T13:49:32;1.98;;;0.32;;
44536;SDS011;30245;51.966;6.292;2023-05-19T13:51:58;4.03;;;0.40;;
44536;SDS011;30245;51.966;6.292;2023-05-19T13:54:23;1.85;;;0.28;;
44536;SDS011;30245;51.966;6.292;2023-05-19T13:56:49;1.13;;;0.28;;
44536;SDS011;30245;51.966;6.292;2023-05-19T13:59:15;3.67;;;0.50;;
44536;SDS011;30245;51.966;6.292;2023-05-19T14:01:45;1.20;;;0.30;;
44536;SDS011;30245;51.966;6.292;2023-05-19T14:04:12;2.28;;;0.40;;
44536;SDS011;30245;51.966;6.292;2023-05-19T14:06:39;2.90;;;0.40;;
44536;SDS011;30245;51.966;6.292;2023-05-19T14:09:08;3.58;;;0.52;;
44536;SDS011;30245;51.966;6.292;2023-05-19T14:11:34;3.95;;;0.60;;
44536;SDS011;30245;51.966;6.292;2023-05-19T14:14:00;1.45;;;0.40;;
44536;SDS011;30245;51.966;6.292;2023-05-19T14:16:27;2.90;;;0.60;;
44536;SDS011;30245;51.966;6.292;2023-05-19T14:18:53;0.52;;;0.20;;
44536;SDS011;30245;51.966;6.292;2023-05-19T14:21:18;1.23;;;0.30;;
44536;SDS011;30245;51.966;6.292;2023-05-19T14:23:44;0.75;;;0.20;;
44536;SDS011;30245;51.966;6.292;2023-05-19T14:26:10;1.10;;;0.20;;
44536;SDS011;30245;51.966;6.292;2023-05-19T14:28:36;2.33;;;0.52;;
44536;SDS011;30245;51.966;6.292;2023-05-19T14:31:01;1.50;;;0.25;;
44536;SDS011;30245;51.966;6.292;2023-05-19T14:33:27;1.58;;;0.22;;
44536;SDS011;30245;51.966;6.292;2023-05-19T14:35:52;2.00;;;0.40;;
44536;SDS011;30245;51.966;6.292;2023-05-19T14:38:19;0.73;;;0.20;;
44536;SDS011;30245;51.966;6.292;2023-05-19T14:40:44;0.75;;;0.25;;
44536;SDS011;30245;51.966;6.292;2023-05-19T14:43:12;0.40;;;0.10;;
44536;SDS011;30245;51.966;6.292;2023-05-19T14:45:38;0.82;;;0.20;;
44536;SDS011;30245;51.966;6.292;2023-05-19T14:48:05;1.23;;;0.20;;
44536;SDS011;30245;51.966;6.292;2023-05-19T14:50:34;5.15;;;0.30;;
44536;SDS011;30245;51.966;6.292;2023-05-19T14:53:00;1.33;;;0.30;;
44536;SDS011;30245;51.966;6.292;2023-05-19T14:55:25;0.60;;;0.20;;
44536;SDS011;30245;51.966;6.292;2023-05-19T14:57:51;2.65;;;0.20;;
44536;SDS011;30245;51.966;6.292;2023-05-19T15:00:16;1.80;;;0.20;;
44536;SDS011;30245;51.966;6.292;2023-05-19T15:02:42;0.70;;;0.20;;
44536;SDS011;30245;51.966;6.292;2023-05-19T15:05:08;0.95;;;0.30;;
44536;SDS011;30245;51.966;6.292;2023-05-19T15:07:34;1.50;;;0.25;;
44536;SDS011;30245;51.966;6.292;2023-05-19T15:10:03;1.73;;;0.40;;
44536;SDS011;30245;51.966;6.292;2023-05-19T15:12:29;0.70;;;0.20;;
44536;SDS011;30245;51.966;6.292;2023-05-19T15:14:54;3.05;;;0.20;;
44536;SDS011;30245;51.966;6.292;2023-05-19T15:17:20;1.40;;;0.20;;
44536;SDS011;30245;51.966;6.292;2023-05-19T15:19:46;3.45;;;0.20;;
44536;SDS011;30245;51.966;6.292;2023-05-19T15:22:11;2.55;;;0.20;;
44536;SDS011;30245;51.966;6.292;2023-05-19T15:24:37;1.02;;;0.20;;